sensor_id;sensor_type;location;lat;lon;timestamp;pressure;altitude;pressure_sealevel;temperature;humidity
72855;BME280;60991;51.278;22.550;2023-03-16T00:01:07;99140.63;;;4.38;58.06
72855;BME280;60991;51.278;22.550;2023-03-16T00:02:37;99144.47;;;4.42;57.72
72855;BME280;60991;51.278;22.550;2023-03-16T00:04:08;99145.28;;;4.36;58.16
72855;BME280;60991;51.278;22.550;2023-03-16T00:05:38;99148.53;;;4.38;57.67
72855;BME280;60991;51.278;22.550;2023-03-16T00:07:10;99148.31;;;4.40;57.72
72855;BME280;60991;51.278;22.550;2023-03-16T00:08:40;99147.09;;;4.42;57.67
72855;BME280;60991;51.278;22.550;2023-03-16T00:10:11;99147.72;;;4.38;58.08
72855;BME280;60991;51.278;22.550;2023-03-16T00:11:42;99146.69;;;4.32;58.25
72855;BME280;60991;51.278;22.550;2023-03-16T00:13:20;99153.75;;;4.32;58.00
72855;BME280;60991;51.278;22.550;2023-03-16T00:14:51;99149.13;;;4.34;57.93
72855;BME280;60991;51.278;22.550;2023-03-16T00:16:21;99154.38;;;4.34;58.04
72855;BME280;60991;51.278;22.550;2023-03-16T00:17:52;99151.53;;;4.35;57.94
72855;BME280;60991;51.278;22.550;2023-03-16T00:19:22;99155.59;;;4.31;58.17
72855;BME280;60991;51.278;22.550;2023-03-16T00:20:54;99156.41;;;4.32;57.82
72855;BME280;60991;51.278;22.550;2023-03-16T00:22:27;99159.63;;;4.34;58.28
72855;BME280;60991;51.278;22.550;2023-03-16T00:23:57;99149.94;;;4.34;58.59
72855;BME280;60991;51.278;22.550;2023-03-16T00:25:28;99158.63;;;4.28;58.26
72855;BME280;60991;51.278;22.550;2023-03-16T00:26:58;99154.19;;;4.22;58.27
72855;BME280;60991;51.278;22.550;2023-03-16T00:28:29;99151.16;;;4.25;58.45
72855;BME280;60991;51.278;22.550;2023-03-16T00:29:59;99161.66;;;4.25;58.57
72855;BME280;60991;51.278;22.550;2023-03-16T00:31:30;99156.22;;;4.27;58.38
72855;BME280;60991;51.278;22.550;2023-03-16T00:33:00;99161.66;;;4.25;58.40
72855;BME280;60991;51.278;22.550;2023-03-16T00:34:30;99163.28;;;4.26;58.74
72855;BME280;60991;51.278;22.550;2023-03-16T00:36:01;99164.09;;;4.27;58.13
72855;BME280;60991;51.278;22.550;2023-03-16T00:37:32;99163.06;;;4.28;58.47
72855;BME280;60991;51.278;22.550;2023-03-16T00:39:05;99158.00;;;4.33;58.27
72855;BME280;60991;51.278;22.550;2023-03-16T00:40:35;99159.22;;;4.30;58.17
72855;BME280;60991;51.278;22.550;2023-03-16T00:42:05;99160.84;;;4.31;58.61
72855;BME280;60991;51.278;22.550;2023-03-16T00:43:36;99163.06;;;4.34;57.96
72855;BME280;60991;51.278;22.550;2023-03-16T00:45:07;99166.72;;;4.33;58.22
72855;BME280;60991;51.278;22.550;2023-03-16T00:46:37;99168.31;;;4.28;58.32
72855;BME280;60991;51.278;22.550;2023-03-16T00:48:07;99170.94;;;4.28;58.79
72855;BME280;60991;51.278;22.550;2023-03-16T00:49:38;99181.88;;;4.25;58.80
72855;BME280;60991;51.278;22.550;2023-03-16T00:51:12;99170.16;;;4.21;58.41
72855;BME280;60991;51.278;22.550;2023-03-16T00:52:42;99182.69;;;4.25;58.73
72855;BME280;60991;51.278;22.550;2023-03-16T00:54:13;99181.69;;;4.26;58.52
72855;BME280;60991;51.278;22.550;2023-03-16T00:55:43;99187.13;;;4.25;58.55
72855;BME280;60991;51.278;22.550;2023-03-16T00:57:15;99181.06;;;4.24;59.08
72855;BME280;60991;51.278;22.550;2023-03-16T00:58:46;99183.50;;;4.26;58.75
72855;BME280;60991;51.278;22.550;2023-03-16T01:00:16;99181.28;;;4.23;58.51
72855;BME280;60991;51.278;22.550;2023-03-16T01:01:47;99185.50;;;4.17;59.16
72855;BME280;60991;51.278;22.550;2023-03-16T01:03:17;99188.31;;;4.15;59.13
72855;BME280;60991;51.278;22.550;2023-03-16T01:04:47;99183.47;;;4.12;59.34
72855;BME280;60991;51.278;22.550;2023-03-16T01:06:18;99185.28;;;4.12;59.38
72855;BME280;60991;51.278;22.550;2023-03-16T01:07:48;99183.28;;;4.07;59.73
72855;BME280;60991;51.278;22.550;2023-03-16T01:09:18;99188.13;;;4.04;59.45
72855;BME280;60991;51.278;22.550;2023-03-16T01:10:49;99186.88;;;3.93;60.05
72855;BME280;60991;51.278;22.550;2023-03-16T01:12:19;99190.50;;;3.92;59.92
72855;BME280;60991;51.278;22.550;2023-03-16T01:13:49;99189.88;;;3.90;60.42
72855;BME280;60991;51.278;22.550;2023-03-16T01:15:20;99185.06;;;3.87;60.04
72855;BME280;60991;51.278;22.550;2023-03-16T01:16:50;99193.94;;;3.86;60.27
72855;BME280;60991;51.278;22.550;2023-03-16T01:18:20;99185.25;;;3.86;60.13
72855;BME280;60991;51.278;22.550;2023-03-16T01:19:50;99187.63;;;3.74;60.57
72855;BME280;60991;51.278;22.550;2023-03-16T01:21:21;99189.06;;;3.76;60.30
72855;BME280;60991;51.278;22.550;2023-03-16T01:22:51;99185.19;;;3.72;60.40
72855;BME280;60991;51.278;22.550;2023-03-16T01:24:21;99186.59;;;3.62;60.70
72855;BME280;60991;51.278;22.550;2023-03-16T01:25:52;99180.34;;;3.63;61.00
72855;BME280;60991;51.278;22.550;2023-03-16T01:27:22;99181.19;;;3.70;60.48
72855;BME280;60991;51.278;22.550;2023-03-16T01:28:52;99187.00;;;3.59;60.91
72855;BME280;60991;51.278;22.550;2023-03-16T01:30:23;99185.56;;;3.56;61.43
72855;BME280;60991;51.278;22.550;2023-03-16T01:31:53;99191.63;;;3.57;61.10
72855;BME280;60991;51.278;22.550;2023-03-16T01:33:25;99184.59;;;3.64;61.21
72855;BME280;60991;51.278;22.550;2023-03-16T01:34:56;99188.00;;;3.58;60.85
72855;BME280;60991;51.278;22.550;2023-03-16T01:36:26;99188.38;;;3.55;61.62
72855;BME280;60991;51.278;22.550;2023-03-16T01:37:56;99184.56;;;3.57;61.29
72855;BME280;60991;51.278;22.550;2023-03-16T01:39:26;99183.97;;;3.62;60.85
72855;BME280;60991;51.278;22.550;2023-03-16T01:40:57;99188.63;;;3.66;61.03
72855;BME280;60991;51.278;22.550;2023-03-16T01:42:27;99184.16;;;3.60;60.76
72855;BME280;60991;51.278;22.550;2023-03-16T01:43:57;99179.50;;;3.56;61.66
72855;BME280;60991;51.278;22.550;2023-03-16T01:47:31;99185.56;;;3.56;61.15
72855;BME280;60991;51.278;22.550;2023-03-16T01:50:35;99189.38;;;3.54;61.44
72855;BME280;60991;51.278;22.550;2023-03-16T01:52:12;99193.84;;;3.60;61.43
72855;BME280;60991;51.278;22.550;2023-03-16T01:53:44;99193.44;;;3.56;61.56
72855;BME280;60991;51.278;22.550;2023-03-16T01:55:16;99193.66;;;3.61;61.36
72855;BME280;60991;51.278;22.550;2023-03-16T01:58:30;99198.28;;;3.59;61.40
72855;BME280;60991;51.278;22.550;2023-03-16T02:00:07;99195.66;;;3.59;61.24
72855;BME280;60991;51.278;22.550;2023-03-16T02:01:38;99197.28;;;3.60;61.59
72855;BME280;60991;51.278;22.550;2023-03-16T02:03:15;99193.66;;;3.61;61.73
72855;BME280;60991;51.278;22.550;2023-03-16T02:06:25;99192.06;;;3.67;60.97
72855;BME280;60991;51.278;22.550;2023-03-16T02:07:55;99196.09;;;3.63;61.11
72855;BME280;60991;51.278;22.550;2023-03-16T02:09:26;99203.75;;;3.58;61.42
72855;BME280;60991;51.278;22.550;2023-03-16T02:10:56;99207.56;;;3.55;61.45
72855;BME280;60991;51.278;22.550;2023-03-16T02:12:28;99202.50;;;3.54;61.80
72855;BME280;60991;51.278;22.550;2023-03-16T02:14:03;99211.81;;;3.56;61.88
72855;BME280;60991;51.278;22.550;2023-03-16T02:15:35;99213.63;;;3.56;61.41
72855;BME280;60991;51.278;22.550;2023-03-16T02:17:05;99211.41;;;3.59;61.52
72855;BME280;60991;51.278;22.550;2023-03-16T02:18:35;99211.22;;;3.61;61.76
72855;BME280;60991;51.278;22.550;2023-03-16T02:22:00;99216.09;;;3.64;61.47
72855;BME280;60991;51.278;22.550;2023-03-16T02:23:31;99214.06;;;3.66;61.43
72855;BME280;60991;51.278;22.550;2023-03-16T02:25:02;99225.78;;;3.63;61.72
72855;BME280;60991;51.278;22.550;2023-03-16T02:26:40;99223.75;;;3.65;61.36
72855;BME280;60991;51.278;22.550;2023-03-16T02:30:12;99228.78;;;3.60;61.99
72855;BME280;60991;51.278;22.550;2023-03-16T02:31:43;99225.34;;;3.60;61.70
72855;BME280;60991;51.278;22.550;2023-03-16T02:33:15;99226.94;;;3.54;61.96
72855;BME280;60991;51.278;22.550;2023-03-16T02:34:46;99233.59;;;3.57;62.26
72855;BME280;60991;51.278;22.550;2023-03-16T02:36:18;99235.03;;;3.59;62.12
72855;BME280;60991;51.278;22.550;2023-03-16T02:37:48;99229.16;;;3.51;61.85
72855;BME280;60991;51.278;22.550;2023-03-16T02:39:18;99233.19;;;3.46;62.65
72855;BME280;60991;51.278;22.550;2023-03-16T02:41:05;99224.31;;;3.47;62.46
72855;BME280;60991;51.278;22.550;2023-03-16T02:42:39;99233.22;;;3.60;61.89
72855;BME280;60991;51.278;22.550;2023-03-16T02:44:19;99237.47;;;3.61;62.05
72855;BME280;60991;51.278;22.550;2023-03-16T02:45:54;99243.94;;;3.65;62.31
72855;BME280;60991;51.278;22.550;2023-03-16T02:47:32;99240.31;;;3.66;61.96
72855;BME280;60991;51.278;22.550;2023-03-16T02:49:11;99246.38;;;3.66;61.90
72855;BME280;60991;51.278;22.550;2023-03-16T02:50:47;99249.81;;;3.73;61.41
72855;BME280;60991;51.278;22.550;2023-03-16T02:52:18;99249.44;;;3.76;61.93
72855;BME280;60991;51.278;22.550;2023-03-16T02:53:48;99246.63;;;3.78;61.71
72855;BME280;60991;51.278;22.550;2023-03-16T02:55:19;99249.44;;;3.76;61.34
72855;BME280;60991;51.278;22.550;2023-03-16T02:56:49;99243.19;;;3.71;61.99
72855;BME280;60991;51.278;22.550;2023-03-16T02:58:19;99251.06;;;3.71;62.15
72855;BME280;60991;51.278;22.550;2023-03-16T02:59:50;99249.19;;;3.65;62.06
72855;BME280;60991;51.278;22.550;2023-03-16T03:01:20;99249.19;;;3.65;62.14
72855;BME280;60991;51.278;22.550;2023-03-16T03:02:50;99255.84;;;3.61;61.89
72855;BME280;60991;51.278;22.550;2023-03-16T03:04:20;99258.84;;;3.58;62.11
72855;BME280;60991;51.278;22.550;2023-03-16T03:05:51;99260.03;;;3.55;62.39
72855;BME280;60991;51.278;22.550;2023-03-16T03:07:21;99261.25;;;3.53;62.52
72855;BME280;60991;51.278;22.550;2023-03-16T03:08:51;99264.69;;;3.53;61.97
72855;BME280;60991;51.278;22.550;2023-03-16T03:10:21;99257.03;;;3.52;62.63
72855;BME280;60991;51.278;22.550;2023-03-16T03:11:52;99257.63;;;3.54;62.59
72855;BME280;60991;51.278;22.550;2023-03-16T03:13:22;99257.63;;;3.54;61.98
72855;BME280;60991;51.278;22.550;2023-03-16T03:14:52;99266.09;;;3.49;62.75
72855;BME280;60991;51.278;22.550;2023-03-16T03:16:23;99259.81;;;3.43;62.72
72855;BME280;60991;51.278;22.550;2023-03-16T03:17:53;99253.56;;;3.44;62.63
72855;BME280;60991;51.278;22.550;2023-03-16T03:19:24;99259.59;;;3.45;62.55
72855;BME280;60991;51.278;22.550;2023-03-16T03:20:54;99262.22;;;3.45;62.38
72855;BME280;60991;51.278;22.550;2023-03-16T03:22:25;99259.00;;;3.43;62.90
72855;BME280;60991;51.278;22.550;2023-03-16T03:23:55;99267.47;;;3.45;63.00
72855;BME280;60991;51.278;22.550;2023-03-16T03:25:25;99259.38;;;3.40;62.85
72855;BME280;60991;51.278;22.550;2023-03-16T03:26:56;99257.56;;;3.40;62.61
72855;BME280;60991;51.278;22.550;2023-03-16T03:28:26;99264.59;;;3.33;63.28
72855;BME280;60991;51.278;22.550;2023-03-16T03:29:56;99257.06;;;3.24;63.58
72855;BME280;60991;51.278;22.550;2023-03-16T03:31:27;99257.25;;;3.22;63.64
72855;BME280;60991;51.278;22.550;2023-03-16T03:32:57;99260.75;;;3.29;63.61
72855;BME280;60991;51.278;22.550;2023-03-16T03:34:28;99266.31;;;3.20;63.81
72855;BME280;60991;51.278;22.550;2023-03-16T03:35:59;99271.44;;;3.28;63.09
72855;BME280;60991;51.278;22.550;2023-03-16T03:37:29;99268.56;;;3.23;63.11
72855;BME280;60991;51.278;22.550;2023-03-16T03:38:59;99273.38;;;3.19;63.30
72855;BME280;60991;51.278;22.550;2023-03-16T03:40:29;99275.88;;;3.27;63.29
72855;BME280;60991;51.278;22.550;2023-03-16T03:42:00;99285.97;;;3.30;63.64
72855;BME280;60991;51.278;22.550;2023-03-16T03:43:30;99285.09;;;3.23;63.11
72855;BME280;60991;51.278;22.550;2023-03-16T03:45:00;99288.50;;;3.17;63.24
72855;BME280;60991;51.278;22.550;2023-03-16T03:46:31;99293.34;;;3.20;63.66
72855;BME280;60991;51.278;22.550;2023-03-16T03:48:01;99286.88;;;3.16;63.79
72855;BME280;60991;51.278;22.550;2023-03-16T03:49:31;99288.28;;;3.12;63.65
72855;BME280;60991;51.278;22.550;2023-03-16T03:51:01;99293.91;;;3.09;64.54
72855;BME280;60991;51.278;22.550;2023-03-16T03:52:31;99284.66;;;3.13;64.34
72855;BME280;60991;51.278;22.550;2023-03-16T03:54:02;99285.47;;;3.13;64.21
72855;BME280;60991;51.278;22.550;2023-03-16T03:55:32;99291.72;;;3.12;63.63
72855;BME280;60991;51.278;22.550;2023-03-16T03:57:03;99294.53;;;3.18;63.82
72855;BME280;60991;51.278;22.550;2023-03-16T03:58:34;99298.22;;;3.23;63.40
72855;BME280;60991;51.278;22.550;2023-03-16T04:00:07;99292.53;;;3.20;63.62
72855;BME280;60991;51.278;22.550;2023-03-16T04:01:38;99302.66;;;3.23;63.76
72855;BME280;60991;51.278;22.550;2023-03-16T04:03:08;99305.03;;;3.18;64.19
72855;BME280;60991;51.278;22.550;2023-03-16T04:04:39;99303.16;;;3.05;63.97
72855;BME280;60991;51.278;22.550;2023-03-16T04:06:09;99308.38;;;3.05;64.58
72855;BME280;60991;51.278;22.550;2023-03-16T04:07:40;99309.38;;;3.04;64.41
72855;BME280;60991;51.278;22.550;2023-03-16T04:09:10;99305.81;;;3.11;64.05
72855;BME280;60991;51.278;22.550;2023-03-16T04:10:40;99311.06;;;3.11;63.89
72855;BME280;60991;51.278;22.550;2023-03-16T04:12:10;99315.50;;;3.11;64.08
72855;BME280;60991;51.278;22.550;2023-03-16T04:13:41;99322.19;;;3.13;64.32
72855;BME280;60991;51.278;22.550;2023-03-16T04:15:11;99319.16;;;3.17;63.76
72855;BME280;60991;51.278;22.550;2023-03-16T04:16:41;99322.41;;;3.19;63.49
72855;BME280;60991;51.278;22.550;2023-03-16T04:18:11;99324.03;;;3.20;64.04
72855;BME280;60991;51.278;22.550;2023-03-16T04:19:42;99321.78;;;3.17;64.10
72855;BME280;60991;51.278;22.550;2023-03-16T04:21:15;99325.84;;;3.19;63.88
72855;BME280;60991;51.278;22.550;2023-03-16T04:22:46;99331.81;;;3.06;64.19
72855;BME280;60991;51.278;22.550;2023-03-16T04:24:17;99336.22;;;3.06;64.41
72855;BME280;60991;51.278;22.550;2023-03-16T04:25:47;99339.84;;;3.05;64.36
72855;BME280;60991;51.278;22.550;2023-03-16T04:27:17;99342.22;;;3.00;64.82
72855;BME280;60991;51.278;22.550;2023-03-16T04:28:48;99348.47;;;2.99;64.51
72855;BME280;60991;51.278;22.550;2023-03-16T04:30:18;99349.69;;;2.96;64.70
72855;BME280;60991;51.278;22.550;2023-03-16T04:31:48;99350.50;;;2.97;64.99
72855;BME280;60991;51.278;22.550;2023-03-16T04:33:19;99359.16;;;2.97;64.45
72855;BME280;60991;51.278;22.550;2023-03-16T04:34:49;99351.88;;;2.93;64.60
72855;BME280;60991;51.278;22.550;2023-03-16T04:36:20;99351.00;;;2.86;64.64
72855;BME280;60991;51.278;22.550;2023-03-16T04:37:51;99357.03;;;2.86;64.75
72855;BME280;60991;51.278;22.550;2023-03-16T04:39:21;99357.97;;;2.78;64.94
72855;BME280;60991;51.278;22.550;2023-03-16T04:40:52;99362.00;;;2.74;65.28
72855;BME280;60991;51.278;22.550;2023-03-16T04:42:22;99362.19;;;2.73;65.07
72855;BME280;60991;51.278;22.550;2023-03-16T04:43:52;99364.59;;;2.74;65.39
72855;BME280;60991;51.278;22.550;2023-03-16T04:45:22;99360.19;;;2.75;65.16
72855;BME280;60991;51.278;22.550;2023-03-16T04:46:53;99370.78;;;2.67;65.22
72855;BME280;60991;51.278;22.550;2023-03-16T04:48:23;99373.09;;;2.55;65.65
72855;BME280;60991;51.278;22.550;2023-03-16T04:49:53;99371.47;;;2.54;65.40
72855;BME280;60991;51.278;22.550;2023-03-16T04:51:24;99370.75;;;2.46;66.03
72855;BME280;60991;51.278;22.550;2023-03-16T04:52:54;99374.38;;;2.44;65.97
72855;BME280;60991;51.278;22.550;2023-03-16T04:54:24;99371.75;;;2.44;66.03
72855;BME280;60991;51.278;22.550;2023-03-16T04:55:55;99379.38;;;2.39;66.10
72855;BME280;60991;51.278;22.550;2023-03-16T04:57:25;99378.44;;;2.47;65.89
72855;BME280;60991;51.278;22.550;2023-03-16T04:58:55;99378.69;;;2.52;66.47
72855;BME280;60991;51.278;22.550;2023-03-16T05:00:26;99384.66;;;2.46;66.19
72855;BME280;60991;51.278;22.550;2023-03-16T05:01:56;99379.59;;;2.44;66.03
72855;BME280;60991;51.278;22.550;2023-03-16T05:03:26;99377.16;;;2.43;67.01
72855;BME280;60991;51.278;22.550;2023-03-16T05:04:57;99386.84;;;2.42;66.35
72855;BME280;60991;51.278;22.550;2023-03-16T05:06:28;99375.50;;;2.35;67.11
72855;BME280;60991;51.278;22.550;2023-03-16T05:07:58;99378.75;;;2.37;66.84
72855;BME280;60991;51.278;22.550;2023-03-16T05:09:28;99389.41;;;2.36;66.86
72855;BME280;60991;51.278;22.550;2023-03-16T05:10:58;99393.28;;;2.40;66.67
72855;BME280;60991;51.278;22.550;2023-03-16T05:12:28;99386.59;;;2.37;66.95
72855;BME280;60991;51.278;22.550;2023-03-16T05:13:59;99386.59;;;2.37;67.00
72855;BME280;60991;51.278;22.550;2023-03-16T05:15:30;99396.31;;;2.43;66.46
72855;BME280;60991;51.278;22.550;2023-03-16T05:17:01;99391.66;;;2.39;67.54
72855;BME280;60991;51.278;22.550;2023-03-16T05:18:31;99394.91;;;2.41;66.92
72855;BME280;60991;51.278;22.550;2023-03-16T05:20:01;99396.22;;;2.52;66.98
72855;BME280;60991;51.278;22.550;2023-03-16T05:21:31;99399.56;;;2.46;67.07
72855;BME280;60991;51.278;22.550;2023-03-16T05:23:02;99401.00;;;2.48;66.66
72855;BME280;60991;51.278;22.550;2023-03-16T05:24:32;99406.09;;;2.35;67.10
72855;BME280;60991;51.278;22.550;2023-03-16T05:26:02;99396.31;;;2.43;67.26
72855;BME280;60991;51.278;22.550;2023-03-16T05:27:33;99394.78;;;2.49;66.95
72855;BME280;60991;51.278;22.550;2023-03-16T05:29:03;99401.09;;;2.55;66.90
72855;BME280;60991;51.278;22.550;2023-03-16T05:30:33;99393.25;;;2.55;66.51
72855;BME280;60991;51.278;22.550;2023-03-16T05:32:04;99392.97;;;2.50;67.51
72855;BME280;60991;51.278;22.550;2023-03-16T05:33:34;99394.78;;;2.49;67.06
72855;BME280;60991;51.278;22.550;2023-03-16T05:35:05;99401.72;;;2.57;66.55
72855;BME280;60991;51.278;22.550;2023-03-16T05:36:36;99396.22;;;2.52;67.32
72855;BME280;60991;51.278;22.550;2023-03-16T05:38:06;99404.41;;;2.63;66.92
72855;BME280;60991;51.278;22.550;2023-03-16T05:39:36;99401.66;;;2.71;66.09
72855;BME280;60991;51.278;22.550;2023-03-16T05:41:06;99409.97;;;2.75;66.35
72855;BME280;60991;51.278;22.550;2023-03-16T05:42:36;99410.16;;;2.73;66.37
72855;BME280;60991;51.278;22.550;2023-03-16T05:44:07;99421.66;;;2.72;66.29
72855;BME280;60991;51.278;22.550;2023-03-16T05:45:37;99403.59;;;2.63;66.78
72855;BME280;60991;51.278;22.550;2023-03-16T05:47:07;99415.97;;;2.69;66.95
72855;BME280;60991;51.278;22.550;2023-03-16T05:48:38;99415.44;;;2.80;66.32
72855;BME280;60991;51.278;22.550;2023-03-16T05:50:10;99421.13;;;2.84;66.17
72855;BME280;60991;51.278;22.550;2023-03-16T05:51:40;99413.53;;;2.89;65.79
72855;BME280;60991;51.278;22.550;2023-03-16T05:53:10;99420.22;;;2.91;66.02
72855;BME280;60991;51.278;22.550;2023-03-16T05:54:41;99423.84;;;2.90;65.79
72855;BME280;60991;51.278;22.550;2023-03-16T05:56:11;99430.56;;;2.99;65.41
72855;BME280;60991;51.278;22.550;2023-03-16T05:57:41;99428.38;;;3.03;65.41
72855;BME280;60991;51.278;22.550;2023-03-16T05:59:11;99420.16;;;3.06;65.76
72855;BME280;60991;51.278;22.550;2023-03-16T06:00:42;99430.09;;;3.10;65.22
72855;BME280;60991;51.278;22.550;2023-03-16T06:02:12;99433.69;;;3.09;65.32
72855;BME280;60991;51.278;22.550;2023-03-16T06:03:42;99434.06;;;3.06;65.85
72855;BME280;60991;51.278;22.550;2023-03-16T06:05:13;99436.19;;;3.18;65.92
72855;BME280;60991;51.278;22.550;2023-03-16T06:06:43;99439.50;;;3.26;65.38
72855;BME280;60991;51.278;22.550;2023-03-16T06:08:14;99441.97;;;3.34;65.37
72855;BME280;60991;51.278;22.550;2023-03-16T06:09:44;99448.09;;;3.20;65.36
72855;BME280;60991;51.278;22.550;2023-03-16T06:11:14;99448.56;;;3.24;64.99
72855;BME280;60991;51.278;22.550;2023-03-16T06:12:45;99451.25;;;3.30;64.84
72855;BME280;60991;51.278;22.550;2023-03-16T06:14:15;99454.91;;;3.36;64.58
72855;BME280;60991;51.278;22.550;2023-03-16T06:15:45;99453.97;;;3.22;65.08
72855;BME280;60991;51.278;22.550;2023-03-16T06:17:16;99453.53;;;3.19;65.42
72855;BME280;60991;51.278;22.550;2023-03-16T06:18:46;99458.66;;;3.27;64.99
72855;BME280;60991;51.278;22.550;2023-03-16T06:20:16;99456.97;;;3.19;65.42
72855;BME280;60991;51.278;22.550;2023-03-16T06:21:47;99464.28;;;3.24;65.29
72855;BME280;60991;51.278;22.550;2023-03-16T06:23:17;99469.84;;;3.35;64.74
72855;BME280;60991;51.278;22.550;2023-03-16T06:24:47;99467.09;;;3.43;65.08
72855;BME280;60991;51.278;22.550;2023-03-16T06:26:17;99467.72;;;3.45;65.10
72855;BME280;60991;51.278;22.550;2023-03-16T06:27:47;99467.91;;;3.44;64.65
72855;BME280;60991;51.278;22.550;2023-03-16T06:29:18;99468.97;;;3.50;64.36
72855;BME280;60991;51.278;22.550;2023-03-16T06:30:48;99466.56;;;3.55;64.66
72855;BME280;60991;51.278;22.550;2023-03-16T06:32:21;99466.16;;;3.51;64.01
72855;BME280;60991;51.278;22.550;2023-03-16T06:33:52;99468.63;;;3.59;64.44
72855;BME280;60991;51.278;22.550;2023-03-16T06:35:22;99471.13;;;3.67;64.22
72855;BME280;60991;51.278;22.550;2023-03-16T06:36:52;99469.25;;;3.61;64.18
72855;BME280;60991;51.278;22.550;2023-03-16T06:38:22;99471.75;;;3.69;63.92
72855;BME280;60991;51.278;22.550;2023-03-16T06:39:52;99476.03;;;3.77;63.37
72855;BME280;60991;51.278;22.550;2023-03-16T06:41:23;99478.09;;;3.81;63.69
72855;BME280;60991;51.278;22.550;2023-03-16T06:42:53;99471.84;;;3.82;63.27
72855;BME280;60991;51.278;22.550;2023-03-16T06:44:23;99481.78;;;3.87;63.59
72855;BME280;60991;51.278;22.550;2023-03-16T06:45:53;99476.34;;;3.89;63.45
72855;BME280;60991;51.278;22.550;2023-03-16T06:47:24;99476.72;;;3.92;63.27
72855;BME280;60991;51.278;22.550;2023-03-16T06:48:54;99481.97;;;3.92;63.10
72855;BME280;60991;51.278;22.550;2023-03-16T06:50:25;99479.97;;;3.94;62.77
72855;BME280;60991;51.278;22.550;2023-03-16T06:51:56;99483.41;;;3.95;62.73
72855;BME280;60991;51.278;22.550;2023-03-16T06:53:26;99486.66;;;3.97;63.07
72855;BME280;60991;51.278;22.550;2023-03-16T06:54:56;99486.41;;;3.92;62.77
72855;BME280;60991;51.278;22.550;2023-03-16T06:56:27;99489.06;;;3.92;63.14
72855;BME280;60991;51.278;22.550;2023-03-16T06:57:57;99485.03;;;3.89;63.29
72855;BME280;60991;51.278;22.550;2023-03-16T06:59:27;99496.53;;;3.88;63.10
72855;BME280;60991;51.278;22.550;2023-03-16T07:01:01;99486.84;;;3.95;63.54
72855;BME280;60991;51.278;22.550;2023-03-16T07:02:31;99491.28;;;3.95;63.23
72855;BME280;60991;51.278;22.550;2023-03-16T07:04:01;99491.91;;;3.97;63.36
72855;BME280;60991;51.278;22.550;2023-03-16T07:05:32;99491.53;;;4.00;62.82
72855;BME280;60991;51.278;22.550;2023-03-16T07:07:02;99483.66;;;4.00;62.58
72855;BME280;60991;51.278;22.550;2023-03-16T07:08:32;99489.47;;;3.95;63.28
72855;BME280;60991;51.278;22.550;2023-03-16T07:10:02;99503.81;;;3.93;62.91
72855;BME280;60991;51.278;22.550;2023-03-16T07:11:33;99497.72;;;3.86;63.24
72855;BME280;60991;51.278;22.550;2023-03-16T07:13:03;99501.34;;;3.85;63.65
72855;BME280;60991;51.278;22.550;2023-03-16T07:14:33;99498.34;;;3.88;63.20
72855;BME280;60991;51.278;22.550;2023-03-16T07:16:03;99500.44;;;3.99;63.33
72855;BME280;60991;51.278;22.550;2023-03-16T07:17:34;99509.13;;;3.99;63.06
72855;BME280;60991;51.278;22.550;2023-03-16T07:19:04;99496.84;;;4.06;63.12
72855;BME280;60991;51.278;22.550;2023-03-16T07:20:34;99502.31;;;4.11;63.16
72855;BME280;60991;51.278;22.550;2023-03-16T07:22:04;99507.75;;;4.10;62.55
72855;BME280;60991;51.278;22.550;2023-03-16T07:23:35;99502.28;;;4.05;62.88
72855;BME280;60991;51.278;22.550;2023-03-16T07:25:05;99498.59;;;3.99;63.23
72855;BME280;60991;51.278;22.550;2023-03-16T07:26:36;99504.31;;;4.09;63.33
72855;BME280;60991;51.278;22.550;2023-03-16T07:28:06;99507.16;;;4.08;63.23
72855;BME280;60991;51.278;22.550;2023-03-16T07:29:36;99507.00;;;4.16;62.84
72855;BME280;60991;51.278;22.550;2023-03-16T07:31:07;99514.13;;;4.22;63.06
72855;BME280;60991;51.278;22.550;2023-03-16T07:32:37;99508.88;;;4.22;62.91
72855;BME280;60991;51.278;22.550;2023-03-16T07:34:07;99506.88;;;4.31;62.88
72855;BME280;60991;51.278;22.550;2023-03-16T07:35:37;99508.66;;;4.24;62.38
72855;BME280;60991;51.278;22.550;2023-03-16T07:37:08;99505.84;;;4.25;62.85
72855;BME280;60991;51.278;22.550;2023-03-16T07:38:38;99514.69;;;4.17;62.63
72855;BME280;60991;51.278;22.550;2023-03-16T07:40:09;99506.03;;;4.24;62.78
72855;BME280;60991;51.278;22.550;2023-03-16T07:41:39;99507.69;;;4.31;62.93
72855;BME280;60991;51.278;22.550;2023-03-16T07:43:09;99506.97;;;4.44;62.65
72855;BME280;60991;51.278;22.550;2023-03-16T07:44:40;99507.41;;;4.54;61.65
72855;BME280;60991;51.278;22.550;2023-03-16T07:46:10;99507.84;;;4.58;61.98
72855;BME280;60991;51.278;22.550;2023-03-16T07:47:41;99512.31;;;4.64;61.65
72855;BME280;60991;51.278;22.550;2023-03-16T07:49:11;99509.25;;;4.60;61.89
72855;BME280;60991;51.278;22.550;2023-03-16T07:50:41;99509.69;;;4.64;61.34
72855;BME280;60991;51.278;22.550;2023-03-16T07:52:12;99512.56;;;4.75;61.15
72855;BME280;60991;51.278;22.550;2023-03-16T07:53:42;99514.41;;;4.81;61.08
72855;BME280;60991;51.278;22.550;2023-03-16T07:55:12;99517.44;;;4.78;60.82
72855;BME280;60991;51.278;22.550;2023-03-16T07:56:43;99514.19;;;4.76;60.73
72855;BME280;60991;51.278;22.550;2023-03-16T07:58:13;99521.25;;;4.82;60.74
72855;BME280;60991;51.278;22.550;2023-03-16T07:59:43;99516.84;;;4.90;60.66
72855;BME280;60991;51.278;22.550;2023-03-16T08:01:13;99516.66;;;4.91;60.66
72855;BME280;60991;51.278;22.550;2023-03-16T08:02:44;99528.03;;;4.98;60.18
72855;BME280;60991;51.278;22.550;2023-03-16T08:04:14;99526.41;;;4.97;60.27
72855;BME280;60991;51.278;22.550;2023-03-16T08:05:44;99514.66;;;4.93;60.17
72855;BME280;60991;51.278;22.550;2023-03-16T08:07:14;99528.41;;;4.95;59.95
72855;BME280;60991;51.278;22.550;2023-03-16T08:08:45;99529.84;;;4.98;60.15
72855;BME280;60991;51.278;22.550;2023-03-16T08:10:15;99523.56;;;5.05;59.91
72855;BME280;60991;51.278;22.550;2023-03-16T08:11:45;99526.22;;;5.12;59.68